createdAt,value
2023-03-13T00:00:41.884Z,4.93
2023-03-13T00:03:12.007Z,4.50
2023-03-13T00:05:43.175Z,4.50
2023-03-13T00:08:11.274Z,4.10
2023-03-13T00:10:42.193Z,4.53
2023-03-13T00:13:11.068Z,4.80
2023-03-13T00:15:39.153Z,4.35
2023-03-13T00:18:15.286Z,4.40
2023-03-13T00:20:48.581Z,4.50
2023-03-13T00:23:16.558Z,4.22
2023-03-13T00:25:44.625Z,4.10
2023-03-13T00:28:12.698Z,4.40
2023-03-13T00:30:43.461Z,4.70
2023-03-13T00:33:13.366Z,4.53
2023-03-13T00:35:41.413Z,4.20
2023-03-13T00:38:18.369Z,4.30
2023-03-13T00:40:48.395Z,4.13
2023-03-13T00:43:17.642Z,4.15
2023-03-13T00:45:49.732Z,4.22
2023-03-13T00:48:19.576Z,4.07
2023-03-13T00:50:47.687Z,4.07
2023-03-13T00:53:36.035Z,4.15
2023-03-13T00:56:06.855Z,4.57
2023-03-13T00:58:37.312Z,4.28
2023-03-13T01:01:10.657Z,4.10
2023-03-13T01:03:41.704Z,4.22
2023-03-13T01:06:13.627Z,4.20
2023-03-13T01:08:46.231Z,4.45
2023-03-13T01:11:16.431Z,4.40
2023-03-13T01:13:45.105Z,3.88
2023-03-13T01:16:18.753Z,4.10
2023-03-13T01:18:48.744Z,4.60
2023-03-13T01:21:20.058Z,4.40
2023-03-13T01:23:51.161Z,4.10
2023-03-13T01:26:19.909Z,4.30
2023-03-13T01:28:50.348Z,4.15
2023-03-13T01:31:21.247Z,4.07
2023-03-13T01:33:53.000Z,4.00
2023-03-13T01:36:21.790Z,4.72
2023-03-13T01:38:57.045Z,4.15
2023-03-13T01:41:26.621Z,3.90
2023-03-13T01:43:55.620Z,3.92
2023-03-13T01:46:27.895Z,4.38
2023-03-13T01:49:01.690Z,3.95
2023-03-13T01:51:33.380Z,3.97
2023-03-13T01:54:09.831Z,4.68
2023-03-13T01:56:44.587Z,3.90
2023-03-13T01:59:18.680Z,3.78
2023-03-13T02:01:49.585Z,4.30
2023-03-13T02:04:22.095Z,4.20
2023-03-13T02:06:57.951Z,3.70
2023-03-13T02:09:34.624Z,4.30
2023-03-13T02:12:06.793Z,4.28
2023-03-13T02:14:39.785Z,3.60
2023-03-13T02:17:08.808Z,4.00
2023-03-13T02:19:44.048Z,3.53
2023-03-13T02:22:21.300Z,3.95
2023-03-13T02:25:07.011Z,3.67
2023-03-13T02:27:41.260Z,3.92
2023-03-13T02:30:11.792Z,3.67
2023-03-13T02:32:50.248Z,3.90
2023-03-13T02:35:21.388Z,3.80
2023-03-13T02:37:53.090Z,4.20
2023-03-13T02:40:26.716Z,3.90
2023-03-13T02:43:04.216Z,4.15
2023-03-13T02:45:32.320Z,4.22
2023-03-13T02:48:05.741Z,3.80
2023-03-13T02:50:50.714Z,4.28
2023-03-13T02:53:35.703Z,3.65
2023-03-13T02:56:09.283Z,3.72
2023-03-13T02:58:50.820Z,3.45
2023-03-13T03:01:22.082Z,4.10
2023-03-13T03:03:54.883Z,3.88
2023-03-13T03:06:27.651Z,3.85
2023-03-13T03:08:58.027Z,3.70
2023-03-13T03:11:36.772Z,4.25
2023-03-13T03:14:10.634Z,3.60
2023-03-13T03:16:42.108Z,3.72
2023-03-13T03:19:12.232Z,3.72
2023-03-13T03:21:40.520Z,3.45
2023-03-13T03:24:14.489Z,3.67
2023-03-13T03:26:45.313Z,3.90
2023-03-13T03:29:16.283Z,3.60
2023-03-13T03:31:46.773Z,3.97
2023-03-13T03:34:26.192Z,3.90
2023-03-13T03:36:54.243Z,3.30
2023-03-13T03:39:22.298Z,3.13
2023-03-13T03:41:51.921Z,3.53
2023-03-13T03:44:28.982Z,3.65
2023-03-13T03:46:57.388Z,3.45
2023-03-13T03:49:32.535Z,3.55
2023-03-13T03:52:03.936Z,3.53
2023-03-13T03:54:38.165Z,3.20
2023-03-13T03:57:10.952Z,3.15
2023-03-13T03:59:44.649Z,3.25
2023-03-13T04:02:26.819Z,3.70
2023-03-13T04:04:57.160Z,3.53
2023-03-13T04:07:28.954Z,3.35
2023-03-13T04:09:58.432Z,3.15
2023-03-13T04:12:29.938Z,3.42
2023-03-13T04:15:12.534Z,4.05
2023-03-13T04:17:46.185Z,3.28
2023-03-13T04:20:21.341Z,3.15
2023-03-13T04:22:52.647Z,3.33
2023-03-13T04:25:24.078Z,3.00
2023-03-13T04:27:55.293Z,3.13
2023-03-13T04:30:31.174Z,3.58
2023-03-13T04:33:02.252Z,2.97
2023-03-13T04:35:32.327Z,3.10
2023-03-13T04:38:03.260Z,3.33
2023-03-13T04:40:42.061Z,3.88
2023-03-13T04:43:18.991Z,3.20
2023-03-13T04:45:57.048Z,2.97
2023-03-13T04:48:30.138Z,3.17
2023-03-13T04:51:01.530Z,3.40
2023-03-13T04:53:31.175Z,3.42
2023-03-13T04:56:00.895Z,3.17
2023-03-13T04:58:33.781Z,3.05
2023-03-13T05:01:07.330Z,3.10
2023-03-13T05:03:52.745Z,3.20
2023-03-13T05:06:34.072Z,3.08
2023-03-13T05:09:11.823Z,3.47
2023-03-13T05:11:40.407Z,2.70
2023-03-13T05:14:15.130Z,3.08
2023-03-13T05:16:48.258Z,3.00
2023-03-13T05:19:18.478Z,3.25
2023-03-13T05:21:49.133Z,2.88
2023-03-13T05:24:54.368Z,3.40
2023-03-13T05:30:14.397Z,2.92
2023-03-13T05:32:44.025Z,3.20
2023-03-13T05:35:12.233Z,3.03
2023-03-13T05:37:41.893Z,3.13
2023-03-13T05:40:11.655Z,2.60
2023-03-13T05:42:40.114Z,3.20
2023-03-13T05:45:10.298Z,3.17
2023-03-13T05:47:39.366Z,3.53
2023-03-13T05:50:15.299Z,2.90
2023-03-13T05:52:43.594Z,3.00
2023-03-13T05:55:11.838Z,2.70
2023-03-13T05:57:40.031Z,3.10
2023-03-13T06:00:09.497Z,3.00
2023-03-13T06:02:37.752Z,3.15
2023-03-13T06:05:11.136Z,2.92
2023-03-13T06:15:21.990Z,2.58
2023-03-13T06:17:50.232Z,2.83
2023-03-13T06:20:20.115Z,3.45
2023-03-13T06:22:48.208Z,3.28
2023-03-13T06:25:16.338Z,2.90
2023-03-13T06:27:46.485Z,2.83
2023-03-13T06:30:14.904Z,2.72
2023-03-13T06:33:19.892Z,2.92
2023-03-13T06:35:56.650Z,2.50
2023-03-13T06:38:25.525Z,2.58
2023-03-13T06:40:53.517Z,2.85
2023-03-13T06:43:22.416Z,2.75
2023-03-13T06:45:50.737Z,2.70
2023-03-13T06:48:19.132Z,2.70
2023-03-13T06:50:47.301Z,2.67
2023-03-13T06:53:18.953Z,2.90
2023-03-13T06:55:49.144Z,2.55
2023-03-13T06:58:30.923Z,3.13
2023-03-13T07:00:59.534Z,2.80
2023-03-13T07:03:27.726Z,2.67
2023-03-13T07:06:01.011Z,2.25
2023-03-13T07:08:30.780Z,3.00
2023-03-13T07:11:01.579Z,2.30
2023-03-13T07:13:29.913Z,2.72
2023-03-13T07:16:01.292Z,2.70
2023-03-13T07:18:29.324Z,2.40
2023-03-13T07:20:59.355Z,2.67
2023-03-13T07:23:30.259Z,2.78
2023-03-13T07:26:04.420Z,2.50
2023-03-13T07:28:43.711Z,2.53
2023-03-13T07:31:14.698Z,2.72
2023-03-13T07:33:44.986Z,2.35
2023-03-13T07:36:17.948Z,2.63
2023-03-13T07:38:49.591Z,2.67
2023-03-13T07:41:19.245Z,2.50
2023-03-13T07:43:49.746Z,2.60
2023-03-13T07:46:21.888Z,2.55
2023-03-13T07:48:52.674Z,3.15
2023-03-13T07:51:33.434Z,2.50
2023-03-13T07:54:17.058Z,2.53
2023-03-13T07:56:47.463Z,2.55
2023-03-13T07:59:16.145Z,2.53
2023-03-13T08:01:44.816Z,2.65
2023-03-13T08:04:22.890Z,2.60
2023-03-13T08:06:54.655Z,2.40
2023-03-13T08:09:27.506Z,2.58
2023-03-13T08:11:57.333Z,2.40
2023-03-13T08:14:25.565Z,2.80
2023-03-13T08:16:54.129Z,2.30
2023-03-13T08:19:24.754Z,2.90
2023-03-13T08:21:53.057Z,2.95
2023-03-13T08:24:21.254Z,2.35
2023-03-13T08:26:49.381Z,2.53
2023-03-13T08:29:19.036Z,2.05
2023-03-13T08:31:48.962Z,2.30
2023-03-13T08:34:18.526Z,2.40
2023-03-13T08:36:47.495Z,2.80
2023-03-13T08:39:22.362Z,2.55
2023-03-13T08:41:57.992Z,2.53
2023-03-13T08:44:32.398Z,2.40
2023-03-13T08:47:01.121Z,2.53
2023-03-13T08:49:30.847Z,2.45
2023-03-13T08:52:00.450Z,2.40
2023-03-13T08:54:41.181Z,2.20
2023-03-13T08:57:11.963Z,2.35
2023-03-13T08:59:50.689Z,2.20
2023-03-13T09:02:21.034Z,2.40
2023-03-13T09:04:51.200Z,1.92
2023-03-13T09:07:23.450Z,2.28
2023-03-13T09:10:06.036Z,2.58
2023-03-13T09:12:37.112Z,2.40
2023-03-13T09:15:10.145Z,2.33
2023-03-13T09:17:38.539Z,2.25
2023-03-13T09:20:09.822Z,2.40
2023-03-13T09:22:44.042Z,2.38
2023-03-13T09:25:12.497Z,1.98
2023-03-13T09:27:41.460Z,2.17
2023-03-13T09:30:14.234Z,2.40
2023-03-13T09:32:48.648Z,2.25
2023-03-13T09:35:29.753Z,2.40
2023-03-13T09:38:07.556Z,2.30
2023-03-13T09:41:21.752Z,2.15
2023-03-13T09:44:32.108Z,2.50
2023-03-13T09:47:07.406Z,2.67
2023-03-13T09:50:14.185Z,2.08
2023-03-13T09:52:48.857Z,2.20
2023-03-13T09:55:27.905Z,2.30
2023-03-13T09:57:58.210Z,2.30
2023-03-13T10:00:30.564Z,2.13
2023-03-13T10:03:14.252Z,2.17
2023-03-13T10:05:50.327Z,2.13
2023-03-13T10:08:36.641Z,2.40
2023-03-13T10:11:09.547Z,1.90
2023-03-13T10:13:46.983Z,2.50
2023-03-13T10:16:24.411Z,2.40
2023-03-13T10:19:00.243Z,2.13
2023-03-13T10:21:36.492Z,2.22
2023-03-13T10:24:23.794Z,2.40
2023-03-13T10:26:53.384Z,2.20
2023-03-13T10:29:28.174Z,2.40
2023-03-13T10:32:11.476Z,2.40
2023-03-13T10:37:51.957Z,2.03
2023-03-13T10:40:28.819Z,2.58
2023-03-13T10:43:10.682Z,2.22
2023-03-13T10:45:46.529Z,2.30
2023-03-13T10:48:25.828Z,2.20
2023-03-13T10:51:04.343Z,2.30
2023-03-13T10:53:40.407Z,2.30
2023-03-13T10:56:16.132Z,2.33
2023-03-13T10:58:48.607Z,2.60
2023-03-13T11:01:26.664Z,2.30
2023-03-13T11:04:31.067Z,2.20
2023-03-13T11:07:11.229Z,2.00
2023-03-13T11:09:41.742Z,2.35
2023-03-13T11:12:20.985Z,2.50
2023-03-13T11:14:53.512Z,2.70
2023-03-13T11:17:33.674Z,2.22
2023-03-13T11:20:17.933Z,2.15
2023-03-13T11:23:12.352Z,2.20
2023-03-13T11:25:48.674Z,2.38
2023-03-13T11:28:41.061Z,2.10
2023-03-13T11:31:14.657Z,2.22
2023-03-13T11:33:55.506Z,2.13
2023-03-13T11:36:29.448Z,2.08
2023-03-13T11:39:22.165Z,2.10
2023-03-13T11:42:19.348Z,1.80
2023-03-13T11:45:00.536Z,2.00
2023-03-13T11:47:46.185Z,2.08
2023-03-13T11:50:24.690Z,2.30
2023-03-13T11:53:07.242Z,2.17
2023-03-13T11:55:48.967Z,2.08
2023-03-13T11:58:47.470Z,2.00
2023-03-13T12:01:24.666Z,1.95
2023-03-13T12:04:01.168Z,2.00
2023-03-13T12:06:47.621Z,1.92
2023-03-13T12:09:18.567Z,1.70
2023-03-13T12:12:04.726Z,2.10
2023-03-13T12:14:38.934Z,1.90
2023-03-13T12:17:17.690Z,2.20
2023-03-13T12:19:52.398Z,1.98
2023-03-13T12:22:29.138Z,1.80
2023-03-13T12:25:15.319Z,2.00
2023-03-13T12:30:52.107Z,2.13
2023-03-13T12:33:32.377Z,2.33
2023-03-13T12:36:20.345Z,2.25
2023-03-13T12:39:18.814Z,2.30
2023-03-13T12:42:17.484Z,2.25
2023-03-13T12:45:10.437Z,2.53
2023-03-13T12:48:31.153Z,2.00
2023-03-13T12:51:44.705Z,2.30
2023-03-13T12:54:54.479Z,2.10
2023-03-13T12:58:10.329Z,2.10
2023-03-13T13:08:47.046Z,2.10
2023-03-13T13:12:08.851Z,2.28
2023-03-13T13:18:45.611Z,2.15
2023-03-13T13:42:23.139Z,1.92
2023-03-13T13:49:39.508Z,1.88
2023-03-13T13:53:10.263Z,2.03
2023-03-13T13:56:52.437Z,2.03
2023-03-13T14:00:04.995Z,2.00
2023-03-13T14:02:58.088Z,2.00
2023-03-13T14:05:59.591Z,2.00
2023-03-13T14:09:12.754Z,2.00
2023-03-13T14:12:30.452Z,2.08
2023-03-13T14:21:35.317Z,2.00
2023-03-13T14:26:44.962Z,2.10
2023-03-13T14:31:47.640Z,2.03
2023-03-13T14:34:26.672Z,2.05
2023-03-13T14:37:07.377Z,1.90
2023-03-13T16:44:03.518Z,1.63
2023-03-13T16:46:37.121Z,1.55
2023-03-13T16:49:07.520Z,1.40
2023-03-13T16:51:35.805Z,1.50
2023-03-13T16:54:06.672Z,1.60
2023-03-13T16:56:37.763Z,1.60
2023-03-13T16:59:09.072Z,1.58
2023-03-13T17:01:37.612Z,1.52
2023-03-13T17:04:06.311Z,1.50
2023-03-13T17:06:38.001Z,1.20
2023-03-13T17:09:11.315Z,1.75
2023-03-13T17:14:46.076Z,1.60
2023-03-13T17:17:26.296Z,1.40
2023-03-13T17:25:53.383Z,1.52
2023-03-13T17:28:39.566Z,1.63
2023-03-13T17:34:32.797Z,1.50
2023-03-13T17:37:12.735Z,1.60
2023-03-13T17:41:28.086Z,1.60
2023-03-13T17:44:06.281Z,1.60
2023-03-13T17:47:10.131Z,1.50
2023-03-13T18:12:51.932Z,1.73
2023-03-13T18:23:14.123Z,1.70
2023-03-13T18:27:22.471Z,1.35
2023-03-13T18:30:48.842Z,1.65
2023-03-13T18:37:13.211Z,1.70
2023-03-13T18:39:57.000Z,1.90
2023-03-13T18:42:57.682Z,1.70
2023-03-13T18:45:36.529Z,1.83
2023-03-13T18:48:36.084Z,1.75
2023-03-13T18:58:21.074Z,1.85
2023-03-13T19:01:22.979Z,1.95
2023-03-13T19:07:41.701Z,1.95
2023-03-13T19:10:43.150Z,1.65
2023-03-13T19:13:12.927Z,1.67
2023-03-13T19:15:41.117Z,1.73
2023-03-13T19:18:18.257Z,1.80
2023-03-13T19:20:49.876Z,1.95
2023-03-13T19:23:25.147Z,1.90
2023-03-13T19:25:53.441Z,1.73
2023-03-13T19:28:24.851Z,1.90
2023-03-13T19:30:56.456Z,1.80
2023-03-13T19:33:27.231Z,1.80
2023-03-13T19:36:01.557Z,1.67
2023-03-13T19:38:29.717Z,1.90
2023-03-13T19:41:09.263Z,1.90
2023-03-13T19:43:37.848Z,1.73
2023-03-13T19:46:21.320Z,1.63
2023-03-13T19:48:53.083Z,1.65
2023-03-13T19:51:21.361Z,1.90
2023-03-13T19:54:00.173Z,1.60
2023-03-13T19:56:34.363Z,1.88
2023-03-13T19:59:14.059Z,1.67
2023-03-13T20:01:42.670Z,1.83
2023-03-13T20:04:18.225Z,1.90
2023-03-13T20:06:51.144Z,1.80
2023-03-13T20:09:23.571Z,1.67
2023-03-13T20:12:03.070Z,1.63
2023-03-13T20:14:31.447Z,1.90
2023-03-13T20:16:59.448Z,1.85
2023-03-13T20:19:31.796Z,2.17
2023-03-13T20:22:09.631Z,1.85
2023-03-13T20:24:48.652Z,1.70
2023-03-13T20:27:16.645Z,2.00
2023-03-13T20:29:44.659Z,2.25
2023-03-13T20:32:13.357Z,2.13
2023-03-13T20:34:42.997Z,1.90
2023-03-13T20:37:27.309Z,1.70
2023-03-13T20:39:55.682Z,2.03
2023-03-13T20:42:23.964Z,1.73
2023-03-13T20:44:53.159Z,1.58
2023-03-13T20:47:22.810Z,2.00
2023-03-13T20:49:52.325Z,1.90
2023-03-13T20:52:22.371Z,1.92
2023-03-13T20:54:50.508Z,1.60
2023-03-13T20:57:19.682Z,2.42
2023-03-13T20:59:47.683Z,1.90
2023-03-13T21:02:21.883Z,1.80
2023-03-13T21:04:52.138Z,2.20
2023-03-13T21:07:23.771Z,1.88
2023-03-13T21:09:54.259Z,1.95
2023-03-13T21:12:22.187Z,1.88
2023-03-13T21:14:53.455Z,2.00
2023-03-13T21:17:21.558Z,2.13
2023-03-13T21:19:50.845Z,1.88
2023-03-13T21:22:19.234Z,2.00
2023-03-13T21:24:48.978Z,2.10
2023-03-13T21:27:17.049Z,1.92
2023-03-13T21:29:47.353Z,2.20
2023-03-13T21:32:16.176Z,2.13
2023-03-13T21:34:44.433Z,1.95
2023-03-13T21:37:17.440Z,1.83
2023-03-13T21:39:45.762Z,2.03
2023-03-13T21:42:14.411Z,1.70
2023-03-13T21:44:42.853Z,2.20
2023-03-13T21:47:10.831Z,2.00
2023-03-13T21:49:38.980Z,2.13
2023-03-13T21:52:07.331Z,2.10
2023-03-13T21:54:36.992Z,1.90
2023-03-13T21:57:04.967Z,2.08
2023-03-13T21:59:32.871Z,2.05
2023-03-13T22:02:00.867Z,2.10
2023-03-13T22:04:29.119Z,2.10
2023-03-13T22:06:57.070Z,2.20
2023-03-13T22:09:25.072Z,2.15
2023-03-13T22:11:54.879Z,2.08
2023-03-13T22:14:25.746Z,2.03
2023-03-13T22:16:53.670Z,1.77
2023-03-13T22:19:21.754Z,2.03
2023-03-13T22:21:49.738Z,1.83
2023-03-13T22:24:17.638Z,2.00
2023-03-13T22:26:46.121Z,2.00
2023-03-13T22:29:15.407Z,2.33
2023-03-13T22:31:43.385Z,1.80
2023-03-13T22:34:11.225Z,2.15
2023-03-13T22:36:39.155Z,1.77
2023-03-13T22:39:07.498Z,2.00
2023-03-13T22:41:35.433Z,1.95
2023-03-13T22:44:03.424Z,2.13
2023-03-13T22:46:33.163Z,1.85
2023-03-13T22:49:01.126Z,2.10
2023-03-13T22:51:29.193Z,1.90
2023-03-13T22:53:57.248Z,1.80
2023-03-13T22:56:27.590Z,2.00
2023-03-13T22:58:55.701Z,1.85
2023-03-13T23:01:23.863Z,1.90
2023-03-13T23:03:53.410Z,1.70
2023-03-13T23:06:24.338Z,2.00
2023-03-13T23:08:52.727Z,1.70
2023-03-13T23:11:21.207Z,1.75
2023-03-13T23:13:49.537Z,2.08
2023-03-13T23:16:17.601Z,2.00
2023-03-13T23:18:45.728Z,1.92
2023-03-13T23:21:16.332Z,1.75
2023-03-13T23:23:44.919Z,1.98
2023-03-13T23:26:15.223Z,2.00
2023-03-13T23:28:43.686Z,1.90
2023-03-13T23:31:13.606Z,2.20
2023-03-13T23:33:41.808Z,2.22
2023-03-13T23:36:12.007Z,2.00
2023-03-13T23:38:41.464Z,1.92
2023-03-13T23:41:10.896Z,1.98
2023-03-13T23:43:39.069Z,1.80
2023-03-13T23:46:08.498Z,1.75
2023-03-13T23:48:36.514Z,1.92
2023-03-13T23:51:07.028Z,1.80
2023-03-13T23:53:37.250Z,1.88
2023-03-13T23:56:07.569Z,1.80
2023-03-13T23:58:35.825Z,1.80
